Time,TemperatureF,DewpointF,PressureIn,WindDirection,WindDirectionDegrees,WindSpeedMPH,WindSpeedGustMPH,Humidity,HourlyPrecipIn,Conditions,Clouds,dailyrainin,SoftwareType,DateUTC
2013-05-27 01:21:00,47.0,27.0,29.86,West,270,2.0,8.0,45,0.00,,,-99.99,,2013-05-27 08:21:00,
2013-05-27 01:32:00,47.0,27.0,29.86,West,270,2.0,8.0,45,0.00,,,-99.99,,2013-05-27 08:32:00,
2013-05-27 01:42:00,47.0,27.0,29.86,West,270,2.0,8.0,45,0.00,,,-99.99,,2013-05-27 08:42:00,
2013-05-27 03:22:00,47.0,21.0,29.84,WSW,250,1.0,5.0,35,0.00,,,-99.99,,2013-05-27 10:22:00,
2013-05-27 03:32:00,47.0,21.0,29.84,WSW,250,1.0,5.0,35,0.00,,,-99.99,,2013-05-27 10:32:00,
2013-05-27 03:42:00,47.0,21.0,29.84,WSW,250,1.0,5.0,35,0.00,,,-99.99,,2013-05-27 10:42:00,
2013-05-27 04:22:00,45.0,27.0,29.86,North,360,4.0,8.0,49,0.00,,,-99.99,,2013-05-27 11:22:00,
2013-05-27 04:32:00,45.0,27.0,29.86,North,360,4.0,8.0,49,0.00,,,-99.99,,2013-05-27 11:32:00,
2013-05-27 04:42:00,45.0,27.0,29.86,North,360,4.0,8.0,49,0.00,,,-99.99,,2013-05-27 11:42:00,
2013-05-27 05:21:00,43.0,23.0,29.90,South,180,1.0,6.0,44,0.00,,,-99.99,,2013-05-27 12:21:00,
2013-05-27 05:32:00,43.0,23.0,29.90,South,180,1.0,6.0,44,0.00,,,-99.99,,2013-05-27 12:32:00,
2013-05-27 05:42:00,43.0,23.0,29.90,South,180,1.0,6.0,44,0.00,,,-99.99,,2013-05-27 12:42:00,
2013-05-27 06:21:00,42.0,23.0,29.93,North,0,0.0,1.0,47,0.00,,,-99.99,,2013-05-27 13:21:00,
2013-05-27 06:32:00,42.0,23.0,29.93,North,0,0.0,1.0,47,0.00,,,-99.99,,2013-05-27 13:32:00,
2013-05-27 06:41:00,42.0,23.0,29.93,North,0,0.0,1.0,47,0.00,,,-99.99,,2013-05-27 13:41:00,
2013-05-27 07:21:00,47.0,25.0,29.92,SSW,200,1.0,3.0,41,0.00,,,-99.99,,2013-05-27 14:21:00,
2013-05-27 07:32:00,47.0,25.0,29.92,SSW,200,1.0,3.0,41,0.00,,,-99.99,,2013-05-27 14:32:00,
2013-05-27 07:42:00,47.0,25.0,29.92,SSW,200,1.0,3.0,41,0.00,,,-99.99,,2013-05-27 14:42:00,
2013-05-27 08:21:00,56.0,27.0,29.88,SSE,160,1.0,3.0,33,0.00,,,-99.99,,2013-05-27 15:21:00,
2013-05-27 08:33:00,56.0,27.0,29.88,SSE,160,1.0,3.0,33,0.00,,,-99.99,,2013-05-27 15:33:00,
2013-05-27 08:43:00,56.0,27.0,29.88,SSE,160,1.0,3.0,33,0.00,,,-99.99,,2013-05-27 15:43:00,
2013-05-27 09:23:00,61.0,18.0,29.86,NE,40,2.0,5.0,19,0.00,,,-99.99,,2013-05-27 16:23:00,
2013-05-27 09:33:00,61.0,18.0,29.86,NE,40,2.0,5.0,19,0.00,,,-99.99,,2013-05-27 16:33:00,
2013-05-27 09:42:00,61.0,18.0,29.86,NE,40,2.0,5.0,19,0.00,,,-99.99,,2013-05-27 16:42:00,
2013-05-27 10:22:00,62.0,15.0,29.87,NNE,30,5.0,9.0,16,0.00,,,-99.99,,2013-05-27 17:22:00,
2013-05-27 10:32:00,62.0,15.0,29.87,NNE,30,5.0,9.0,16,0.00,,,-99.99,,2013-05-27 17:32:00,
2013-05-27 10:43:00,62.0,15.0,29.87,NNE,30,5.0,9.0,16,0.00,,,-99.99,,2013-05-27 17:43:00,
2013-05-27 11:21:00,64.0,12.0,29.85,NE,40,7.0,13.0,13,0.00,,,-99.99,,2013-05-27 18:21:00,
2013-05-27 11:32:00,64.0,12.0,29.85,NE,40,7.0,13.0,13,0.00,,,-99.99,,2013-05-27 18:32:00,
2013-05-27 11:42:00,64.0,12.0,29.85,NE,40,7.0,13.0,13,0.00,,,-99.99,,2013-05-27 18:42:00,
2013-05-27 12:21:00,65.0,15.0,29.85,NE,50,6.0,11.0,14,0.00,,,-99.99,,2013-05-27 19:21:00,
2013-05-27 12:32:00,65.0,15.0,29.85,NE,50,6.0,11.0,14,0.00,,,-99.99,,2013-05-27 19:32:00,
2013-05-27 13:22:00,65.0,15.0,29.86,North,360,7.0,14.0,14,0.00,,,-99.99,,2013-05-27 20:22:00,
2013-05-27 13:32:00,65.0,15.0,29.86,North,360,7.0,14.0,14,0.00,,,-99.99,,2013-05-27 20:32:00,
2013-05-27 14:21:00,65.0,25.0,29.84,NNE,30,6.0,13.0,22,0.00,,,-99.99,,2013-05-27 21:21:00,
2013-05-27 14:33:00,65.0,25.0,29.84,NNE,30,6.0,13.0,22,0.00,,,-99.99,,2013-05-27 21:33:00,
2013-05-27 14:43:00,65.0,25.0,29.84,NNE,30,6.0,13.0,22,0.00,,,-99.99,,2013-05-27 21:43:00,
2013-05-27 15:22:00,67.0,23.0,29.83,NE,50,6.0,12.0,19,0.00,,,-99.99,,2013-05-27 22:22:00,
2013-05-27 15:32:00,67.0,23.0,29.83,NE,50,6.0,12.0,19,0.00,,,-99.99,,2013-05-27 22:32:00,
2013-05-27 15:42:00,67.0,23.0,29.83,NE,50,6.0,12.0,19,0.00,,,-99.99,,2013-05-27 22:42:00,
2013-05-27 16:22:00,69.0,22.0,29.80,NNW,330,6.0,14.0,17,0.00,,,-99.99,,2013-05-27 23:22:00,
2013-05-27 16:32:00,69.0,22.0,29.80,NNW,330,6.0,14.0,17,0.00,,,-99.99,,2013-05-27 23:32:00,
2013-05-27 16:42:00,69.0,22.0,29.80,NNW,330,6.0,14.0,17,0.00,,,-99.99,,2013-05-27 23:42:00,
2013-05-27 17:21:00,68.0,23.0,29.83,West,260,5.0,13.0,18,0.00,,,-99.99,,2013-05-28 00:21:00,
2013-05-27 17:31:00,68.0,23.0,29.83,West,260,5.0,13.0,18,0.00,,,-99.99,,2013-05-28 00:31:00,
2013-05-27 17:41:00,68.0,23.0,29.83,West,260,5.0,13.0,18,0.00,,,-99.99,,2013-05-28 00:41:00,
2013-05-27 18:21:00,66.0,34.0,29.79,WNW,290,4.0,11.0,31,0.00,,,-99.99,,2013-05-28 01:21:00,
2013-05-27 18:31:00,66.0,34.0,29.79,WNW,290,4.0,11.0,31,0.00,,,-99.99,,2013-05-28 01:31:00,
2013-05-27 18:41:00,66.0,34.0,29.79,WNW,290,4.0,11.0,31,0.00,,,-99.99,,2013-05-28 01:41:00,
2013-05-27 19:21:00,61.0,38.0,29.76,WNW,290,3.0,11.0,42,0.00,,,-99.99,,2013-05-28 02:21:00,
2013-05-27 19:32:00,61.0,38.0,29.76,WNW,290,3.0,11.0,42,0.00,,,-99.99,,2013-05-28 02:32:00,
2013-05-27 19:42:00,61.0,38.0,29.76,WNW,290,3.0,11.0,42,0.00,,,-99.99,,2013-05-28 02:42:00,
2013-05-27 20:21:00,57.0,39.0,29.75,NNW,330,4.0,8.0,50,0.00,,,-99.99,,2013-05-28 03:21:00,
2013-05-27 20:33:00,57.0,39.0,29.75,NNW,330,4.0,8.0,50,0.00,,,-99.99,,2013-05-28 03:33:00,
2013-05-27 20:43:00,57.0,39.0,29.75,NNW,330,4.0,8.0,50,0.00,,,-99.99,,2013-05-28 03:43:00,
2013-05-27 21:22:00,54.0,36.0,29.77,SW,230,1.0,6.0,50,0.00,,,-99.99,,2013-05-28 04:22:00,
2013-05-27 21:33:00,54.0,36.0,29.77,SW,230,1.0,6.0,50,0.00,,,-99.99,,2013-05-28 04:33:00,
2013-05-27 21:42:00,54.0,36.0,29.77,SW,230,1.0,6.0,50,0.00,,,-99.99,,2013-05-28 04:42:00,
2013-05-27 22:22:00,53.0,34.0,29.77,West,270,2.0,7.0,48,0.00,,,-99.99,,2013-05-28 05:22:00,
2013-05-27 22:33:00,53.0,34.0,29.77,West,270,2.0,7.0,48,0.00,,,-99.99,,2013-05-28 05:33:00,
2013-05-27 22:42:00,53.0,34.0,29.77,West,270,2.0,7.0,48,0.00,,,-99.99,,2013-05-28 05:42:00,
2013-05-27 23:21:00,52.0,32.0,29.75,West,270,1.0,7.0,47,0.00,,,-99.99,,2013-05-28 06:21:00,
2013-05-27 23:31:00,52.0,32.0,29.75,West,270,1.0,7.0,47,0.00,,,-99.99,,2013-05-28 06:31:00,
2013-05-27 23:41:00,52.0,32.0,29.75,West,270,1.0,7.0,47,0.00,,,-99.99,,2013-05-28 06:41:00,